Terminal Aerodrome Forecast
Issued by NWS

Current Version | Previous Version | Text Only | Print | Product List | Glossary On
Versions: 1 2 3 4 5 6 7 8 9 10 11 12 13 14 15 16 17 18 19 20 21 22 23 24 25 26
000
FTUS46 KOTX 051720
TAFCOE
TAF
KCOE 051720Z 0518/0618 03019G24KT P6SM FEW050 FEW200
     FM052200 03015G21KT P6SM FEW050 FEW200
     FM060400 05012KT P6SM SKC
      AMD LTD TO CLD AND VIS=

USA.gov is the U.S. government's official web portal to all federal, state and local government web resources and services.